Geneva, Minnesota
Current Conditions -  °F | °C
As of 6:53 AM on Wednesday 26 Nov 2014 (Local Time) from KAEL Reporting Station
Light Snow Light Snow  
Wind Chill: 17°   Ceiling: 4000
Heat Index: 27°   Visibility: 7mi
Dew Point: 23°   Wind: 10mph
Humidity: 86%   Direction: 120°ESE
Pressure: 29.97"   Gusts: NA
Location:  43.82°N, 93.27°W
Report Text: KAEL 261253Z AUTO 12009KT 7SM -SN BKN040 BKN070 OVC095 M03/M05 A2997 RMK AO2
Loading
Personal Weather Stations






























Interactive Weather Map New forecast layout! Learn more

10-Day Weather Forecast

Advertisements
Track Severe Weather on mobile